createdAt,value
2023-05-05T00:01:22.196Z,0.26
2023-05-05T00:03:01.953Z,0.28
2023-05-05T00:04:41.728Z,0.28
2023-05-05T00:06:21.504Z,0.28
2023-05-05T00:08:01.248Z,0.25
2023-05-05T00:09:41.018Z,0.26
2023-05-05T00:11:20.805Z,0.24
2023-05-05T00:13:00.547Z,0.26
2023-05-05T00:14:40.347Z,0.25
2023-05-05T00:16:20.112Z,0.27
2023-05-05T00:17:59.857Z,0.29
2023-05-05T00:19:39.644Z,0.26
2023-05-05T00:21:19.463Z,0.25
2023-05-05T00:22:59.178Z,0.29
2023-05-05T00:24:38.974Z,0.3
2023-05-05T00:26:18.699Z,0.3
2023-05-05T00:27:58.464Z,0.28
2023-05-05T00:29:38.233Z,0.29
2023-05-05T00:31:17.993Z,0.31
2023-05-05T00:32:57.778Z,0.3
2023-05-05T00:34:37.534Z,0.25
2023-05-05T00:36:17.310Z,0.31
2023-05-05T00:37:57.069Z,0.28
2023-05-05T00:39:36.834Z,0.31
2023-05-05T00:41:16.603Z,0.26
2023-05-05T00:42:56.385Z,0.27
2023-05-05T00:44:36.152Z,0.27
2023-05-05T00:46:15.919Z,0.24
2023-05-05T00:47:55.670Z,0.28
2023-05-05T00:49:35.452Z,0.28
2023-05-05T00:51:15.220Z,0.23
2023-05-05T00:52:54.984Z,0.24
2023-05-05T00:54:34.743Z,0.27
2023-05-05T00:56:14.538Z,0.27
2023-05-05T00:57:54.281Z,0.28
2023-05-05T00:59:34.055Z,0.26
2023-05-05T01:01:13.824Z,0.27
2023-05-05T01:02:53.591Z,0.28
2023-05-05T01:04:33.356Z,0.24
2023-05-05T01:06:13.119Z,0.23
2023-05-05T01:07:52.905Z,0.27
2023-05-05T01:09:32.672Z,0.26
2023-05-05T01:11:12.433Z,0.25
2023-05-05T01:12:52.191Z,0.24
2023-05-05T01:14:31.963Z,0.21
2023-05-05T01:16:11.722Z,0.23
2023-05-05T01:17:51.491Z,0.25
2023-05-05T01:19:31.257Z,0.24
2023-05-05T01:21:11.032Z,0.21
2023-05-05T01:22:50.805Z,0.23
2023-05-05T01:24:30.562Z,0.21
2023-05-05T01:26:10.334Z,0.24
2023-05-05T01:27:50.098Z,0.23
2023-05-05T01:29:29.881Z,0.25
2023-05-05T01:31:09.678Z,0.21
2023-05-05T01:32:49.392Z,0.2
2023-05-05T01:34:29.172Z,0.22
2023-05-05T01:36:08.930Z,0.23
2023-05-05T01:37:48.700Z,0.26
2023-05-05T01:39:28.467Z,0.26
2023-05-05T01:41:08.252Z,0.23
2023-05-05T01:42:48.019Z,0.26
2023-05-05T01:44:27.764Z,0.25
2023-05-05T01:46:07.543Z,0.23
2023-05-05T01:47:47.310Z,0.23
2023-05-05T01:49:27.074Z,0.23
2023-05-05T01:51:06.879Z,0.21
2023-05-05T01:52:46.617Z,0.24
2023-05-05T01:54:26.376Z,0.22
2023-05-05T01:56:06.146Z,0.2
2023-05-05T01:57:45.908Z,0.24
2023-05-05T01:59:25.674Z,0.23
2023-05-05T02:01:05.442Z,0.25
2023-05-05T02:02:45.201Z,0.21
2023-05-05T02:04:24.967Z,0.24
2023-05-05T02:06:04.740Z,0.23
2023-05-05T02:07:44.504Z,0.23
2023-05-05T02:09:24.266Z,0.23
2023-05-05T02:11:04.060Z,0.22
2023-05-05T02:12:43.813Z,0.26
2023-05-05T02:14:23.578Z,0.26
2023-05-05T02:16:03.369Z,0.25
2023-05-05T02:17:43.114Z,0.24
2023-05-05T02:19:22.896Z,0.29
2023-05-05T02:21:02.638Z,0.24
2023-05-05T02:22:42.421Z,0.28
2023-05-05T02:24:22.196Z,0.27
2023-05-05T02:26:01.967Z,0.29
2023-05-05T02:27:41.732Z,0.32
2023-05-05T02:29:21.499Z,0.35
2023-05-05T02:31:01.268Z,0.45
2023-05-05T02:32:41.043Z,0.51
2023-05-05T02:34:20.799Z,0.6
2023-05-05T02:36:00.569Z,0.71
2023-05-05T02:37:40.320Z,0.85
2023-05-05T02:39:20.099Z,0.98
2023-05-05T02:40:59.856Z,1.25
2023-05-05T02:42:39.817Z,1.53
2023-05-05T02:44:19.400Z,1.95
2023-05-05T02:45:59.175Z,2.44
2023-05-05T02:47:38.986Z,3.1
2023-05-05T02:49:18.705Z,3.87
2023-05-05T02:50:58.469Z,4.9
2023-05-05T02:52:38.287Z,6.13
2023-05-05T02:54:17.995Z,7.65
2023-05-05T02:55:57.773Z,9.47
2023-05-05T02:57:37.591Z,11.67
2023-05-05T02:59:17.323Z,14.19
2023-05-05T03:00:57.077Z,17.08
2023-05-05T03:02:36.840Z,20.45
2023-05-05T03:04:16.602Z,24.03
2023-05-05T03:05:56.398Z,25.72
2023-05-05T03:07:36.142Z,29.9
2023-05-05T03:09:15.924Z,26.97
2023-05-05T03:10:55.694Z,26.81
2023-05-05T03:12:35.446Z,26.84
2023-05-05T03:14:15.222Z,26.85
2023-05-05T03:15:54.972Z,26.85
2023-05-05T03:17:34.747Z,26.87
2023-05-05T03:19:14.518Z,26.86
2023-05-05T03:20:54.292Z,26.87
2023-05-05T03:22:34.045Z,26.88
2023-05-05T03:24:13.819Z,26.89
2023-05-05T03:25:53.577Z,26.87
2023-05-05T03:27:33.342Z,26.88
2023-05-05T03:29:13.118Z,26.9
2023-05-05T03:30:52.877Z,26.91
2023-05-05T03:32:32.649Z,26.91
2023-05-05T03:34:12.413Z,26.91
2023-05-05T03:35:52.183Z,26.91
2023-05-05T03:37:31.957Z,26.93
2023-05-05T03:39:11.723Z,26.92
2023-05-05T03:40:51.487Z,26.93
2023-05-05T03:42:31.250Z,26.94
2023-05-05T03:44:11.029Z,26.95
2023-05-05T03:45:50.789Z,26.95
2023-05-05T03:47:30.571Z,26.97
2023-05-05T03:49:10.322Z,26.98
2023-05-05T03:50:50.096Z,26.99
2023-05-05T03:52:29.850Z,27
2023-05-05T03:54:09.633Z,27.02
2023-05-05T03:55:49.385Z,27.03
2023-05-05T03:57:29.157Z,27.03
2023-05-05T03:59:08.932Z,27.05
2023-05-05T04:00:48.717Z,27.07
2023-05-05T04:02:28.464Z,27.07
2023-05-05T04:04:08.240Z,27.09
2023-05-05T04:05:48.015Z,27.11
2023-05-05T04:07:27.782Z,70.16
2023-05-05T04:09:07.547Z,32.21
2023-05-05T04:10:47.327Z,27.17
2023-05-05T04:12:27.089Z,27.18
2023-05-05T04:14:06.860Z,27.19
2023-05-05T04:15:46.630Z,27.19
2023-05-05T04:17:26.428Z,27.06
2023-05-05T04:19:06.183Z,27.27
2023-05-05T04:20:45.975Z,27.29
2023-05-05T04:22:25.732Z,27.31
2023-05-05T04:24:05.502Z,27.33
2023-05-05T04:25:45.273Z,27.37
2023-05-05T04:27:25.027Z,27.4
2023-05-05T04:29:04.804Z,27.42
2023-05-05T04:30:44.564Z,27.44
2023-05-05T04:32:24.350Z,27.47
2023-05-05T04:34:04.117Z,27.48
2023-05-05T04:35:43.890Z,27.53
2023-05-05T04:37:23.656Z,27.56
2023-05-05T04:39:03.423Z,27.59
2023-05-05T04:40:43.233Z,27.62
2023-05-05T04:42:22.969Z,27.64
2023-05-05T04:44:02.741Z,27.71
2023-05-05T04:45:42.505Z,27.74
2023-05-05T04:47:22.273Z,27.77
2023-05-05T04:49:02.055Z,27.81
2023-05-05T04:50:41.822Z,27.9
2023-05-05T04:52:21.596Z,27.98
2023-05-05T04:54:01.347Z,28.06
2023-05-05T04:55:41.117Z,28.15
2023-05-05T04:57:20.897Z,28.24
2023-05-05T04:59:00.670Z,28.29
2023-05-05T05:00:40.675Z,28.35
2023-05-05T05:02:20.227Z,28.34
2023-05-05T05:03:59.980Z,28.4
2023-05-05T05:05:39.747Z,28.45
2023-05-05T05:07:19.513Z,28.45
2023-05-05T05:08:59.290Z,74.33
2023-05-05T05:10:39.083Z,75.58
2023-05-05T05:12:18.845Z,74.6
2023-05-05T05:13:58.621Z,74.41
2023-05-05T05:15:38.364Z,74.17
2023-05-05T05:17:18.141Z,80.04
2023-05-05T05:18:57.909Z,80.64
2023-05-05T05:20:37.747Z,82.48
2023-05-05T05:22:17.448Z,83.03
2023-05-05T05:23:57.209Z,83.35
2023-05-05T05:25:36.988Z,83.71
2023-05-05T05:27:16.750Z,84.1
2023-05-05T05:28:56.521Z,84.42
2023-05-05T05:30:36.309Z,84.67
2023-05-05T05:32:16.065Z,84.81
2023-05-05T05:33:55.842Z,84.83
2023-05-05T05:35:35.620Z,85.13
2023-05-05T05:37:15.380Z,85.37
2023-05-05T05:38:55.148Z,85.56
2023-05-05T05:40:34.998Z,85.59
2023-05-05T05:42:14.687Z,85.78
2023-05-05T05:43:54.455Z,85.82
2023-05-05T05:45:34.227Z,86.03
2023-05-05T05:47:14.009Z,85.04
2023-05-05T05:48:53.772Z,83.96
2023-05-05T05:50:33.536Z,84.78
2023-05-05T05:52:13.318Z,84.17
2023-05-05T05:53:53.085Z,85.62
2023-05-05T05:55:32.866Z,86.58
2023-05-05T05:57:12.649Z,86.51
2023-05-05T05:58:52.390Z,86.43
2023-05-05T06:00:32.164Z,86.27
2023-05-05T06:02:11.933Z,86.72
2023-05-05T06:03:51.736Z,86.9
2023-05-05T06:05:31.563Z,87.06
2023-05-05T06:07:11.243Z,87.2
2023-05-05T06:08:51.022Z,87.39
2023-05-05T06:10:30.790Z,87.53
2023-05-05T06:12:10.557Z,87.78
2023-05-05T06:13:50.348Z,87.76
2023-05-05T06:15:30.152Z,86.65
2023-05-05T06:17:09.889Z,88.16
2023-05-05T06:18:49.637Z,86.69
2023-05-05T06:20:29.433Z,87.57
2023-05-05T06:22:09.195Z,85.76
2023-05-05T06:23:48.945Z,84.99
2023-05-05T06:25:28.707Z,85.55
2023-05-05T06:27:08.500Z,86.21
2023-05-05T06:28:48.268Z,87.03
2023-05-05T06:30:28.030Z,86.72
2023-05-05T06:32:07.801Z,86.35
2023-05-05T06:33:47.569Z,87.8
2023-05-05T06:35:27.393Z,88.22
2023-05-05T06:37:07.112Z,88.06
2023-05-05T06:38:46.891Z,87.9
2023-05-05T06:40:26.734Z,87.52
2023-05-05T06:42:06.453Z,87.65
2023-05-05T06:43:46.186Z,87.82
2023-05-05T06:45:25.970Z,86.63
2023-05-05T06:47:05.742Z,88.11
2023-05-05T06:48:45.505Z,87.56
2023-05-05T06:50:25.268Z,86.58
2023-05-05T06:52:05.043Z,85.47
2023-05-05T06:53:44.815Z,86.98
2023-05-05T06:55:24.596Z,87.89
2023-05-05T06:57:04.448Z,88.17
2023-05-05T06:58:44.144Z,88.08
2023-05-05T07:00:23.917Z,87.41
2023-05-05T07:02:03.672Z,88.06
2023-05-05T07:03:43.446Z,87.56
2023-05-05T07:05:23.221Z,86.76
2023-05-05T07:07:02.978Z,87.46
2023-05-05T07:08:42.750Z,87.73
2023-05-05T07:10:22.534Z,87.93
2023-05-05T07:12:02.305Z,87.72
2023-05-05T07:13:42.074Z,87.78
2023-05-05T07:15:21.843Z,86.63
2023-05-05T07:17:01.804Z,85.74
2023-05-05T07:18:41.532Z,85.86
2023-05-05T07:20:21.143Z,85.8
2023-05-05T07:22:01.135Z,86.29
2023-05-05T07:23:40.827Z,87.33
2023-05-05T07:25:20.669Z,88.04
2023-05-05T07:27:00.394Z,88.02
2023-05-05T07:28:40.009Z,87.72
2023-05-05T07:30:19.802Z,87.38
2023-05-05T07:31:59.689Z,87.54
2023-05-05T07:33:39.427Z,87.48
2023-05-05T07:35:19.189Z,87.49
2023-05-05T07:36:59.001Z,87.51
2023-05-05T07:38:38.773Z,87.13
2023-05-05T07:40:18.412Z,87.45
2023-05-05T07:41:58.303Z,87.63
2023-05-05T07:43:37.942Z,87.78
2023-05-05T07:45:17.796Z,87.94
2023-05-05T07:46:57.480Z,88.08
2023-05-05T07:48:37.243Z,87.95
2023-05-05T07:50:17.023Z,87.99
2023-05-05T07:51:56.784Z,87.82
2023-05-05T07:53:36.703Z,87.76
2023-05-05T07:55:16.391Z,87.62
2023-05-05T07:56:56.104Z,87.33
2023-05-05T07:58:35.882Z,86.96
2023-05-05T08:00:15.635Z,87.35
2023-05-05T08:01:55.395Z,87.41
2023-05-05T08:03:35.178Z,87.26
2023-05-05T08:05:14.960Z,87.08
2023-05-05T08:06:54.714Z,86.95
2023-05-05T08:08:34.500Z,86.88
2023-05-05T08:10:14.259Z,86.95
2023-05-05T08:11:54.028Z,86.97
2023-05-05T08:13:33.807Z,86.75
2023-05-05T08:15:13.564Z,86.87
2023-05-05T08:16:53.348Z,87.59
2023-05-05T08:18:33.129Z,87.42
2023-05-05T08:20:12.884Z,87.19
2023-05-05T08:21:52.669Z,87.35
2023-05-05T08:23:32.414Z,87.23
2023-05-05T08:25:12.190Z,87.25
2023-05-05T08:26:51.963Z,87.52
2023-05-05T08:28:31.741Z,87.5
2023-05-05T08:30:11.509Z,87.47
2023-05-05T08:31:51.309Z,87.61
2023-05-05T08:33:31.157Z,87.78
2023-05-05T08:35:10.821Z,87.69
2023-05-05T08:36:50.581Z,87.65
2023-05-05T08:38:30.356Z,87.4
2023-05-05T08:40:10.156Z,87.15
2023-05-05T08:41:49.898Z,87.19
2023-05-05T08:43:29.681Z,86.69
2023-05-05T08:45:09.434Z,86.73
2023-05-05T08:46:49.206Z,86.9
2023-05-05T08:48:29.060Z,87.01
2023-05-05T08:50:08.740Z,87.01
2023-05-05T08:51:48.544Z,87.33
2023-05-05T08:53:28.290Z,87.1
2023-05-05T08:55:08.046Z,87.11
2023-05-05T08:56:47.830Z,87.12
2023-05-05T08:58:27.594Z,87.31
2023-05-05T09:00:07.389Z,87.06
2023-05-05T09:01:47.191Z,86.79
2023-05-05T09:03:26.907Z,86.04
2023-05-05T09:05:06.676Z,86.04
2023-05-05T09:06:46.463Z,86.28
2023-05-05T09:08:26.236Z,87.12
2023-05-05T09:10:05.990Z,87.02
2023-05-05T09:11:45.751Z,86.49
2023-05-05T09:13:25.574Z,86.28
2023-05-05T09:15:05.292Z,86.64
2023-05-05T09:16:45.062Z,86.79
2023-05-05T09:18:24.848Z,86.74
2023-05-05T09:20:04.624Z,86.7
2023-05-05T09:21:44.481Z,86.46
2023-05-05T09:23:24.151Z,86.36
2023-05-05T09:25:03.912Z,86.33
2023-05-05T09:26:43.715Z,86.21
2023-05-05T09:28:23.463Z,86.12
2023-05-05T09:30:03.267Z,85.53
2023-05-05T09:31:43.010Z,85.37
2023-05-05T09:33:22.849Z,85.21
2023-05-05T09:35:02.545Z,85.76
2023-05-05T09:36:42.389Z,86.79
2023-05-05T09:38:22.092Z,86.65
2023-05-05T09:40:01.866Z,87.03
2023-05-05T09:41:41.627Z,86.61
2023-05-05T09:43:21.406Z,86.23
2023-05-05T09:45:01.165Z,86.85
2023-05-05T09:46:40.988Z,87.21
2023-05-05T09:48:20.715Z,87.56
2023-05-05T09:50:00.468Z,87.33
2023-05-05T09:51:40.249Z,85.28
2023-05-05T09:53:20.044Z,84.68
2023-05-05T09:54:59.871Z,85.36
2023-05-05T09:56:39.688Z,85.58
2023-05-05T09:58:19.398Z,87.63
2023-05-05T09:59:59.269Z,87.4
2023-05-05T10:01:39.016Z,86.92
2023-05-05T10:03:18.746Z,86.59
2023-05-05T10:04:58.513Z,86.04
2023-05-05T10:06:38.184Z,86.37
2023-05-05T10:08:17.959Z,85.09
2023-05-05T10:09:57.910Z,84.4
2023-05-05T10:11:37.642Z,86.28
2023-05-05T10:13:17.342Z,86.51
2023-05-05T10:14:57.169Z,86.38
2023-05-05T10:16:36.959Z,87.01
2023-05-05T10:18:16.686Z,85.84
2023-05-05T10:19:56.476Z,85.87
2023-05-05T10:21:36.097Z,87.35
2023-05-05T10:23:15.927Z,87.11
2023-05-05T10:24:55.787Z,84.92
2023-05-05T10:26:35.418Z,87.29
2023-05-05T10:28:15.195Z,84.69
2023-05-05T10:29:55.094Z,86.1
2023-05-05T10:31:34.800Z,86.03
2023-05-05T10:33:14.520Z,87.66
2023-05-05T10:34:54.283Z,87.07
2023-05-05T10:36:34.185Z,85.76
2023-05-05T10:38:13.998Z,85.14
2023-05-05T10:39:53.812Z,85.81
2023-05-05T10:41:33.368Z,85.48
2023-05-05T10:43:13.154Z,85.9
2023-05-05T10:44:52.912Z,85.36
2023-05-05T10:46:32.683Z,85.88
2023-05-05T10:48:12.457Z,85.78
2023-05-05T10:49:52.248Z,85.57
2023-05-05T10:51:32.023Z,85.03
2023-05-05T10:53:11.770Z,84.53
2023-05-05T10:54:51.537Z,84.1
2023-05-05T10:56:31.329Z,84.87
2023-05-05T10:58:11.092Z,85.09
2023-05-05T10:59:50.836Z,85.32
2023-05-05T11:01:30.611Z,85.15
2023-05-05T11:03:10.387Z,84.58
2023-05-05T11:04:50.148Z,84.1
2023-05-05T11:06:29.919Z,83.68
2023-05-05T11:08:09.694Z,84.34
2023-05-05T11:09:49.537Z,84.94
2023-05-05T11:11:29.257Z,84.96
2023-05-05T11:13:09.179Z,84.81
2023-05-05T11:14:48.914Z,85.29
2023-05-05T11:16:28.620Z,84.82
2023-05-05T11:18:08.326Z,85.7
2023-05-05T11:19:48.092Z,86.4
2023-05-05T11:21:27.863Z,86.36
2023-05-05T11:23:07.637Z,86.22
2023-05-05T11:24:47.396Z,85.56
2023-05-05T11:26:27.174Z,85.04
2023-05-05T11:28:06.949Z,83.55
2023-05-05T11:29:46.728Z,85.23
2023-05-05T11:31:26.480Z,85.56
2023-05-05T11:33:06.272Z,86.63
2023-05-05T11:34:46.026Z,86.04
2023-05-05T11:36:25.803Z,85.71
2023-05-05T11:38:05.567Z,85.56
2023-05-05T11:39:45.330Z,85.55
2023-05-05T11:41:25.126Z,85.51
2023-05-05T11:43:04.869Z,86.74
2023-05-05T11:44:44.643Z,86.86
2023-05-05T11:46:24.431Z,86.2
2023-05-05T11:48:04.174Z,85.54
2023-05-05T11:49:43.985Z,85.25
2023-05-05T11:51:23.732Z,85.14
2023-05-05T11:53:03.490Z,86.32
2023-05-05T11:54:43.263Z,85.66
2023-05-05T11:56:23.041Z,85.77
2023-05-05T11:58:02.819Z,84.96
2023-05-05T11:59:42.562Z,84.69
2023-05-05T12:01:22.348Z,85.68
2023-05-05T12:03:02.139Z,85.6
2023-05-05T12:04:41.900Z,85.99
2023-05-05T12:06:21.655Z,85.73
2023-05-05T12:08:01.435Z,86.35
2023-05-05T12:09:41.214Z,86.29
2023-05-05T12:11:20.979Z,86.12
2023-05-05T12:13:00.730Z,85.94
2023-05-05T12:14:40.520Z,85.94
2023-05-05T12:16:20.279Z,84.93
2023-05-05T12:18:00.053Z,87.03
2023-05-05T12:19:39.821Z,86.67
2023-05-05T12:21:19.618Z,86.27
2023-05-05T12:22:59.362Z,85.77
2023-05-05T12:24:39.132Z,86.26
2023-05-05T12:26:18.924Z,85.83
2023-05-05T12:27:58.668Z,86.12
2023-05-05T12:29:38.456Z,85.98
2023-05-05T12:31:18.232Z,85.98
2023-05-05T12:32:57.977Z,85.88
2023-05-05T12:34:37.765Z,86.49
2023-05-05T12:36:17.519Z,86.65
2023-05-05T12:37:57.288Z,86.85
2023-05-05T12:39:37.131Z,86.62
2023-05-05T12:41:16.853Z,86.21
2023-05-05T12:42:56.616Z,85.9
2023-05-05T12:44:36.465Z,86.25
2023-05-05T12:46:16.253Z,85.94
2023-05-05T12:47:55.917Z,85.51
2023-05-05T12:49:35.747Z,86.05
2023-05-05T12:51:15.465Z,85.61
2023-05-05T12:52:55.235Z,85.01
2023-05-05T12:54:34.998Z,85.17
2023-05-05T12:56:14.783Z,85.01
2023-05-05T12:57:54.548Z,85.65
2023-05-05T12:59:34.348Z,85.61
2023-05-05T13:01:14.084Z,85.4
2023-05-05T13:02:53.845Z,85.69
2023-05-05T13:04:33.630Z,86.35
2023-05-05T13:06:13.398Z,86.18
2023-05-05T13:07:53.184Z,85.59
2023-05-05T13:09:32.941Z,85.24
2023-05-05T13:11:12.719Z,85.12
2023-05-05T13:12:52.478Z,85.66
2023-05-05T13:14:32.241Z,85.64
2023-05-05T13:16:12.020Z,85.5
2023-05-05T13:17:51.781Z,85.58
2023-05-05T13:19:31.566Z,85.53
2023-05-05T13:21:11.341Z,85.9
2023-05-05T13:22:51.094Z,86.01
2023-05-05T13:24:30.857Z,85.92
2023-05-05T13:26:10.636Z,85.81
2023-05-05T13:27:50.466Z,86.19
2023-05-05T13:29:30.181Z,85.77
2023-05-05T13:31:09.933Z,85.79
2023-05-05T13:32:49.715Z,85.99
2023-05-05T13:34:29.501Z,86.15
2023-05-05T13:36:09.260Z,85.78
2023-05-05T13:37:49.027Z,85.81
2023-05-05T13:39:28.801Z,85.87
2023-05-05T13:41:08.617Z,85.68
2023-05-05T13:42:48.349Z,85.49
2023-05-05T13:44:28.115Z,85.84
2023-05-05T13:46:07.880Z,86.25
2023-05-05T13:47:47.654Z,86.15
2023-05-05T13:49:27.466Z,85.89
2023-05-05T13:51:07.214Z,86.01
2023-05-05T13:52:46.952Z,85.98
2023-05-05T13:54:26.765Z,85.83
2023-05-05T13:56:06.507Z,85.67
2023-05-05T13:57:46.296Z,85.46
2023-05-05T13:59:26.136Z,85.97
2023-05-05T14:01:05.811Z,86.52
2023-05-05T14:02:45.591Z,86.76
2023-05-05T14:04:25.373Z,86.91
2023-05-05T14:06:05.124Z,86.56
2023-05-05T14:07:44.906Z,86.52
2023-05-05T14:09:24.675Z,86.53
2023-05-05T14:11:04.438Z,86.44
2023-05-05T14:12:44.205Z,86.24
2023-05-05T14:14:23.968Z,86.58
2023-05-05T14:16:03.749Z,86.24
2023-05-05T14:17:43.527Z,86.43
2023-05-05T14:19:23.287Z,86.92
2023-05-05T14:21:03.073Z,86.58
2023-05-05T14:22:42.835Z,85.04
2023-05-05T14:24:22.599Z,85.93
2023-05-05T14:26:02.399Z,86.69
2023-05-05T14:27:42.140Z,86.54
2023-05-05T14:29:21.933Z,86.7
2023-05-05T14:31:01.683Z,86.43
2023-05-05T14:32:41.463Z,86.63
2023-05-05T14:34:21.236Z,86.42
2023-05-05T14:36:01.051Z,86.48
2023-05-05T14:37:40.772Z,86.42
2023-05-05T14:39:20.538Z,86.72
2023-05-05T14:41:00.363Z,86.37
2023-05-05T14:42:40.073Z,86.31
2023-05-05T14:44:19.848Z,86.25
2023-05-05T14:45:59.617Z,86.12
2023-05-05T14:47:39.386Z,86.16
2023-05-05T14:49:19.208Z,86.42
2023-05-05T14:50:58.936Z,86.46
2023-05-05T14:52:38.743Z,86.51
2023-05-05T14:54:18.483Z,86.01
2023-05-05T14:55:58.252Z,86.23
2023-05-05T14:57:38.077Z,85.54
2023-05-05T14:59:17.785Z,86.59
2023-05-05T15:00:57.559Z,86.2
2023-05-05T15:02:37.319Z,86.76
2023-05-05T15:04:17.101Z,85.33
2023-05-05T15:05:56.902Z,84.62
2023-05-05T15:07:36.632Z,86.51
2023-05-05T15:09:16.402Z,86.88
2023-05-05T15:10:56.177Z,86.17
2023-05-05T15:12:35.972Z,86.29
2023-05-05T15:14:15.723Z,86.69
2023-05-05T15:15:55.488Z,86.94
2023-05-05T15:17:35.269Z,86.57
2023-05-05T15:19:15.022Z,86.29
2023-05-05T15:20:54.815Z,86.17
2023-05-05T15:22:34.566Z,86.31
2023-05-05T15:24:14.335Z,86.26
2023-05-05T15:25:54.108Z,86.22
2023-05-05T15:27:33.877Z,86.36
2023-05-05T15:29:13.657Z,85.87
2023-05-05T15:30:53.417Z,85.31
2023-05-05T15:32:33.192Z,85.8
2023-05-05T15:34:12.970Z,85.78
2023-05-05T15:35:52.729Z,85.33
2023-05-05T15:37:32.545Z,85.46
2023-05-05T15:39:12.276Z,85.81
2023-05-05T15:40:52.042Z,86.12
2023-05-05T15:42:31.822Z,85.95
2023-05-05T15:44:11.575Z,85.69
2023-05-05T15:45:51.350Z,85.35
2023-05-05T15:47:31.118Z,85.17
2023-05-05T15:49:10.914Z,85.47
2023-05-05T15:50:50.653Z,86.19
2023-05-05T15:52:30.430Z,87.01
2023-05-05T15:54:10.200Z,86.83
2023-05-05T15:55:49.989Z,86.58
2023-05-05T15:57:29.737Z,86.31
2023-05-05T15:59:09.514Z,85.49
2023-05-05T16:00:49.279Z,85.3
2023-05-05T16:02:29.062Z,83.45
2023-05-05T16:04:08.825Z,83.57
2023-05-05T16:05:48.599Z,83.87
2023-05-05T16:07:28.371Z,83.92
2023-05-05T16:09:08.132Z,83.51
2023-05-05T16:10:47.917Z,83.5
2023-05-05T16:12:27.686Z,83.57
2023-05-05T16:14:07.443Z,83.6
2023-05-05T16:15:47.227Z,83.59
2023-05-05T16:17:26.999Z,83.68
2023-05-05T16:19:06.750Z,83.6
2023-05-05T16:20:46.540Z,83.75
2023-05-05T16:22:26.327Z,83.48
2023-05-05T16:24:06.071Z,83.39
2023-05-05T16:25:45.832Z,83.14
2023-05-05T16:27:25.617Z,82.93
2023-05-05T16:29:05.370Z,82.84
2023-05-05T16:30:45.162Z,82.8
2023-05-05T16:32:24.935Z,82.72
2023-05-05T16:34:04.714Z,82.6
2023-05-05T16:35:44.489Z,82.56
2023-05-05T16:37:24.240Z,82.52
2023-05-05T16:39:04.023Z,82.6
2023-05-05T16:40:43.764Z,82.54
2023-05-05T16:42:23.615Z,82.53
2023-05-05T16:44:03.325Z,82.55
2023-05-05T16:45:43.146Z,82.49
2023-05-05T16:47:22.862Z,82.36
2023-05-05T16:49:02.614Z,82.25
2023-05-05T16:50:42.397Z,82.06
2023-05-05T16:52:22.173Z,81.9
2023-05-05T16:54:01.976Z,81.71
2023-05-05T16:55:41.713Z,81.39
2023-05-05T16:57:21.482Z,80.99
2023-05-05T16:59:01.260Z,80.51
2023-05-05T17:00:41.027Z,79.97
2023-05-05T17:02:20.812Z,79.44
2023-05-05T17:04:00.565Z,78.9
2023-05-05T17:05:40.340Z,78.42
2023-05-05T17:07:20.105Z,77.93
2023-05-05T17:08:59.876Z,77.37
2023-05-05T17:10:39.639Z,76.89
2023-05-05T17:12:19.449Z,76.51
2023-05-05T17:13:59.175Z,76.17
2023-05-05T17:15:38.970Z,75.81
2023-05-05T17:17:18.724Z,75.43
2023-05-05T17:18:58.487Z,75.08
2023-05-05T17:20:38.353Z,74.97
2023-05-05T17:22:18.117Z,75
2023-05-05T17:23:57.819Z,75.05
2023-05-05T17:25:37.589Z,75.01
2023-05-05T17:27:17.489Z,74.82
2023-05-05T17:28:57.111Z,74.49
2023-05-05T17:30:36.882Z,73.82
2023-05-05T17:32:16.661Z,72.98
2023-05-05T17:33:56.461Z,71.44
2023-05-05T17:35:36.199Z,69.55
2023-05-05T17:37:15.961Z,67.56
2023-05-05T17:38:55.752Z,64.87
2023-05-05T17:40:35.515Z,58.22
2023-05-05T17:42:15.284Z,47.3
2023-05-05T17:43:55.061Z,35.95
2023-05-05T17:45:34.811Z,33.84
2023-05-05T17:47:14.669Z,33.54
2023-05-05T17:48:54.371Z,33.39
2023-05-05T17:50:34.123Z,33.37
2023-05-05T17:52:13.895Z,30.71
2023-05-05T17:53:53.656Z,28.07
2023-05-05T17:55:33.490Z,28.04
2023-05-05T17:57:13.195Z,27.99
2023-05-05T17:58:52.978Z,27.97
2023-05-05T18:00:32.744Z,27.95
2023-05-05T18:02:12.494Z,27.92
2023-05-05T18:03:52.316Z,27.89
2023-05-05T18:05:32.070Z,27.86
2023-05-05T18:07:11.802Z,27.82
2023-05-05T18:08:51.572Z,31.63
2023-05-05T18:10:31.349Z,30.22
2023-05-05T18:12:11.169Z,27.74
2023-05-05T18:13:50.923Z,27.73
2023-05-05T18:15:30.814Z,27.7
2023-05-05T18:17:10.394Z,27.69
2023-05-05T18:18:50.197Z,27.67
2023-05-05T18:20:29.940Z,27.64
2023-05-05T18:22:09.761Z,27.61
2023-05-05T18:23:49.546Z,27.58
2023-05-05T18:25:29.273Z,27.57
2023-05-05T18:27:09.050Z,27.55
2023-05-05T18:28:48.784Z,27.53
2023-05-05T18:30:28.560Z,27.5
2023-05-05T18:32:08.411Z,27.49
2023-05-05T18:33:48.088Z,27.4
2023-05-05T18:35:27.845Z,27.43
2023-05-05T18:37:07.665Z,27.41
2023-05-05T18:38:47.390Z,27.39
2023-05-05T18:40:27.162Z,27.35
2023-05-05T18:42:06.912Z,27.3
2023-05-05T18:43:46.689Z,27.24
2023-05-05T18:45:26.456Z,25.5
2023-05-05T18:47:06.213Z,22.44
2023-05-05T18:48:45.986Z,19.75
2023-05-05T18:50:25.757Z,17.35
2023-05-05T18:52:05.540Z,15.14
2023-05-05T18:53:45.287Z,13.08
2023-05-05T18:55:25.058Z,11.27
2023-05-05T18:57:04.861Z,9.58
2023-05-05T18:58:44.587Z,8.17
2023-05-05T19:00:24.455Z,6.91
2023-05-05T19:02:04.128Z,5.82
2023-05-05T19:03:43.894Z,4.96
2023-05-05T19:05:23.817Z,4.3
2023-05-05T19:07:03.423Z,3.66
2023-05-05T19:08:43.361Z,3.15
2023-05-05T19:10:23.077Z,2.6
2023-05-05T19:12:02.891Z,2.19
2023-05-05T19:13:42.661Z,1.82
2023-05-05T19:15:22.429Z,1.49
2023-05-05T19:17:02.029Z,1.28
2023-05-05T19:18:41.852Z,1.01
2023-05-05T19:20:21.815Z,0.84
2023-05-05T19:22:01.360Z,0.71
2023-05-05T19:23:41.112Z,0.58
2023-05-05T19:25:20.999Z,0.54
2023-05-05T19:27:00.777Z,0.49
2023-05-05T19:28:40.540Z,0.45
2023-05-05T19:30:20.389Z,0.4
2023-05-05T19:32:00.022Z,0.4
2023-05-05T19:33:39.860Z,0.32
2023-05-05T19:35:19.563Z,0.31
2023-05-05T19:36:59.291Z,0.3
2023-05-05T19:38:39.028Z,0.32
2023-05-05T19:40:18.781Z,0.32
2023-05-05T19:41:58.645Z,0.27
2023-05-05T19:43:38.420Z,0.31
2023-05-05T19:45:18.188Z,0.3
2023-05-05T19:46:57.856Z,0.26
2023-05-05T19:48:37.786Z,0.26
2023-05-05T19:50:17.381Z,0.26
2023-05-05T19:51:57.258Z,0.3
2023-05-05T19:53:37.087Z,0.3
2023-05-05T19:55:16.887Z,0.28
2023-05-05T19:56:56.598Z,0.27
2023-05-05T19:58:36.220Z,0.27
2023-05-05T20:00:16.187Z,0.25
2023-05-05T20:01:55.904Z,0.27
2023-05-05T20:03:35.531Z,0.26
2023-05-05T20:05:15.296Z,0.28
2023-05-05T20:06:55.212Z,0.28
2023-05-05T20:08:35.005Z,0.27
2023-05-05T20:10:14.658Z,0.26
2023-05-05T20:11:54.353Z,0.23
2023-05-05T20:13:34.191Z,0.23
2023-05-05T20:15:13.987Z,0.26
2023-05-05T20:16:53.856Z,0.22
2023-05-05T20:18:33.510Z,0.24
2023-05-05T20:20:13.194Z,0.25
2023-05-05T20:21:53.148Z,0.23
2023-05-05T20:23:32.831Z,0.23
2023-05-05T20:25:12.673Z,0.23
2023-05-05T20:26:52.512Z,0.28
2023-05-05T20:28:32.210Z,0.28
2023-05-05T20:30:11.898Z,0.24
2023-05-05T20:31:51.603Z,0.25
2023-05-05T20:33:31.507Z,0.28
2023-05-05T20:35:11.282Z,0.25
2023-05-05T20:36:51.083Z,0.25
2023-05-05T20:38:30.764Z,0.28
2023-05-05T20:40:10.466Z,0.27
2023-05-05T20:41:50.192Z,0.28
2023-05-05T20:43:29.950Z,0.24
2023-05-05T20:45:09.906Z,0.28
2023-05-05T20:46:49.538Z,0.27
2023-05-05T20:48:29.433Z,0.26
2023-05-05T20:50:09.022Z,0.28
2023-05-05T20:51:48.792Z,0.28
2023-05-05T20:53:28.725Z,0.25
2023-05-05T20:55:08.495Z,0.28
2023-05-05T20:56:48.096Z,0.27
2023-05-05T20:58:27.869Z,0.26
2023-05-05T21:00:07.806Z,0.28
2023-05-05T21:01:47.401Z,0.28
2023-05-05T21:03:27.367Z,0.27
2023-05-05T21:05:07.073Z,0.29
2023-05-05T21:06:46.913Z,0.26
2023-05-05T21:08:26.456Z,0.25
2023-05-05T21:10:06.433Z,0.24
2023-05-05T21:11:46.165Z,0.25
2023-05-05T21:13:25.917Z,0.26
2023-05-05T21:15:05.543Z,0.24
2023-05-05T21:16:45.288Z,0.26
2023-05-05T21:18:25.218Z,0.26
2023-05-05T21:20:04.842Z,0.28
2023-05-05T21:21:44.607Z,0.26
2023-05-05T21:23:24.462Z,0.3
2023-05-05T21:25:04.278Z,0.28
2023-05-05T21:26:43.901Z,0.26
2023-05-05T21:28:23.858Z,0.28
2023-05-05T21:30:03.421Z,0.28
2023-05-05T21:31:43.371Z,0.28
2023-05-05T21:33:23.094Z,0.3
2023-05-05T21:35:02.865Z,0.27
2023-05-05T21:36:42.623Z,0.26
2023-05-05T21:38:22.343Z,0.25
2023-05-05T21:40:02.047Z,0.28